Main page
METAR-TAF:

METAR-TAF

Airports :

Wekweètì Airport

Wekweeti, Northwest Territories, Canada

latitude: 64-11-27N, longitude: 114-04-36W, elevation: 368 m

Current weather observation

The report was made 24 minutes ago, at 07:00 UTC
Wind 4 kt from the East/Southeast
Temperature 9°C
Humidity 46%
Pressure 1018 hPa
Visibility: 14.5 km
Overcast at a height of 8600 ft

METAR: CYWE 220700Z AUTO 11004KT 9SM OVC086 09/M02 A3007 RMK SLP201

Time: 01:24 (07:24 UTC)

Forecast

The report was made 12 hours and 44 minutes ago, at 18:40 UTC
Forecast valid from 21 at 19 UTC to 22 at 01 UTC
Wind 7 kt from the East
Visibility: 10 km
Scattered clouds at a height of 8000 ft

TAF: CYWE 211840Z 2119/2201 08007KT P6SM SCT080 RMK FCST BASED ON AUTO OBS. NXT FCST BY 221300Z

Weather observations and forecasts of more than 4000 airports (METAR and TAF reports).

The available stations are represented by yellow and red dots on the map.

Hover mouse over dot to see the name of the station.

Then click to see weather observations and forecasts.

To change the map : click on the green buttons with a black cross to zoom in, on the green button with a dash to zoom out, or on the green arrows for adjacent maps.


METAR-TAF: